Time;durP1;ratioP1;P1;durP2;ratioP2;P2;SDS_P1;SDS_P2;PMS_P1;PMS_P2;Temp;Humidity;BMP_temperature;BMP_pressure;BME280_temperature;BME280_humidity;BME280_pressure;Samples;Min_cycle;Max_cycle;Signal;HPM_P1;HPM_P2
2022/05/20 00:02:04;;;;;;;1.33;1.25;;;19.70;99.90;;;;;;5076589;28;20193;-75
2022/05/20 00:04:54;;;;;;;0.40;0.40;;;19.70;99.90;;;;;;5078468;28;20305;-73
2022/05/20 00:07:42;;;;;;;1.02;0.93;;;19.70;99.90;;;;;;5076198;28;20197;-71
2022/05/20 00:10:31;;;;;;;1.45;1.35;;;19.60;99.90;;;;;;5076180;28;20197;-73
2022/05/20 00:13:19;;;;;;;1.25;0.70;;;19.70;99.90;;;;;;5076352;28;20205;-72
2022/05/20 00:16:07;;;;;;;0.73;0.73;;;19.60;99.90;;;;;;5077771;28;20197;-72
2022/05/20 00:18:55;;;;;;;0.52;0.52;;;19.60;99.90;;;;;;5077122;28;20204;-73
2022/05/20 00:21:45;;;;;;;0.50;0.50;;;19.50;99.90;;;;;;5075077;28;20732;-75
2022/05/20 00:24:33;;;;;;;0.50;0.50;;;19.50;99.90;;;;;;5075068;28;20619;-71
2022/05/20 00:27:21;;;;;;;0.80;0.80;;;19.40;99.90;;;;;;5074082;28;20207;-74
2022/05/20 00:30:11;;;;;;;0.40;0.40;;;19.40;99.90;;;;;;5074556;28;20298;-75
2022/05/20 00:32:59;;;;;;;0.40;0.40;;;19.40;99.90;;;;;;5073654;28;20224;-72
2022/05/20 00:35:47;;;;;;;1.17;1.08;;;19.30;99.90;;;;;;5073321;28;20234;-75
2022/05/20 00:38:37;;;;;;;0.50;0.50;;;19.30;99.90;;;;;;5074641;28;20217;-72
2022/05/20 00:41:25;;;;;;;0.82;0.80;;;19.20;99.90;;;;;;5074277;28;20225;-72
2022/05/20 00:44:13;;;;;;;0.80;0.73;;;19.20;99.90;;;;;;5074448;28;20220;-72
2022/05/20 00:47:01;;;;;;;0.40;0.40;;;19.10;99.90;;;;;;5074794;28;20204;-75
2022/05/20 00:49:53;;;;;;;0.68;0.68;;;19.00;99.90;;;;;;5073147;28;20601;-72
2022/05/20 00:52:45;;;;;;;0.50;0.50;;;19.00;99.90;;;;;;5073324;28;20705;-75
2022/05/20 00:55:35;;;;;;;0.40;0.40;;;18.90;99.90;;;;;;5074661;28;20625;-71
2022/05/20 00:58:26;;;;;;;1.13;1.08;;;18.90;99.90;;;;;;5093096;28;20303;-71
2022/05/20 01:01:14;;;;;;;0.60;0.60;;;18.80;99.90;;;;;;5094470;28;20696;-74
2022/05/20 01:04:03;;;;;;;0.73;0.73;;;18.80;99.90;;;;;;5093548;28;20357;-73
2022/05/20 01:06:53;;;;;;;1.25;1.05;;;18.70;99.90;;;;;;5094162;28;20700;-69
2022/05/20 01:09:41;;;;;;;0.60;0.60;;;18.70;99.90;;;;;;5094120;28;20196;-72
2022/05/20 01:12:31;;;;;;;1.02;1.02;;;18.60;99.90;;;;;;5094580;28;20224;-72
2022/05/20 01:15:19;;;;;;;0.65;0.65;;;18.50;99.90;;;;;;5093809;28;20234;-71
2022/05/20 01:18:09;;;;;;;0.50;0.50;;;18.50;99.90;;;;;;5093638;28;20229;-72
2022/05/20 01:20:57;;;;;;;0.40;0.40;;;18.40;99.90;;;;;;5093272;28;20265;-72
2022/05/20 01:23:47;;;;;;;0.50;0.50;;;18.40;99.90;;;;;;5094447;28;20245;-72
2022/05/20 01:26:35;;;;;;;0.40;0.40;;;18.30;99.90;;;;;;5094048;28;20622;-71
2022/05/20 01:29:23;;;;;;;0.40;0.40;;;18.30;99.90;;;;;;5093359;28;20253;-69
2022/05/20 01:32:11;;;;;;;0.73;0.60;;;18.40;99.90;;;;;;5094435;28;20298;-70
2022/05/20 01:34:59;;;;;;;0.60;0.60;;;18.40;99.90;;;;;;5094542;28;20277;-70
2022/05/20 01:37:48;;;;;;;0.50;0.50;;;18.40;99.90;;;;;;5095174;28;20196;-70
2022/05/20 01:40:42;;;;;;;1.23;1.13;;;18.40;99.90;;;;;;5094570;28;20207;-72
2022/05/20 01:44:00;;;;;;;0.50;0.50;;;18.30;99.90;;;;;;5093171;28;20781;-70
2022/05/20 01:46:55;;;;;;;0.70;0.70;;;18.40;99.90;;;;;;5067033;28;20208;-71
2022/05/20 01:49:51;;;;;;;0.60;0.60;;;18.40;99.90;;;;;;5071679;28;20692;-71
2022/05/20 01:52:47;;;;;;;0.63;0.63;;;18.40;99.90;;;;;;5072729;28;20221;-71
2022/05/20 01:55:41;;;;;;;0.88;0.88;;;18.40;99.90;;;;;;5076787;28;20558;-73
2022/05/20 01:58:34;;;;;;;0.40;0.40;;;18.40;99.90;;;;;;5052398;28;20197;-71
2022/05/20 02:01:26;;;;;;;0.70;0.70;;;18.40;99.90;;;;;;5052598;28;20205;-72
2022/05/20 02:04:23;;;;;;;0.88;0.70;;;18.50;99.90;;;;;;5051801;28;20217;-71
2022/05/20 02:07:17;;;;;;;0.40;0.40;;;18.50;99.90;;;;;;5052803;28;20198;-72
2022/05/20 02:10:12;;;;;;;1.15;1.15;;;18.50;99.90;;;;;;5052596;28;20197;-74
2022/05/20 02:13:05;;;;;;;0.40;0.40;;;18.40;99.90;;;;;;5111895;22;20239;-67
2022/05/20 02:15:59;;;;;;;0.82;0.82;;;18.40;99.90;;;;;;5097057;28;20192;-67
2022/05/20 02:19:00;;;;;;;0.88;0.88;;;18.40;99.90;;;;;;5096542;28;20204;-67
2022/05/20 02:21:52;;;;;;;0.50;0.50;;;18.40;99.90;;;;;;5096288;28;20220;-66
2022/05/20 02:24:41;;;;;;;0.60;0.50;;;18.30;99.90;;;;;;5094629;28;20200;-67
2022/05/20 02:27:33;;;;;;;0.77;0.77;;;18.40;99.90;;;;;;5095655;28;20205;-67
2022/05/20 02:30:27;;;;;;;0.40;0.40;;;18.30;99.90;;;;;;5095495;28;20180;-66
2022/05/20 02:33:18;;;;;;;0.40;0.40;;;18.10;99.90;;;;;;5095014;28;20239;-67
2022/05/20 02:36:09;;;;;;;0.60;0.50;;;18.10;99.90;;;;;;5096042;28;20185;-66
2022/05/20 02:38:57;;;;;;;0.40;0.40;;;18.00;99.90;;;;;;5095335;28;20222;-66
2022/05/20 02:41:47;;;;;;;1.33;1.30;;;18.00;99.90;;;;;;5091384;28;20221;-66
2022/05/20 02:44:35;;;;;;;0.40;0.40;;;18.00;99.90;;;;;;5091735;28;20234;-66
2022/05/20 02:47:26;;;;;;;0.82;0.82;;;17.90;99.90;;;;;;5093295;28;20200;-67
2022/05/20 02:50:14;;;;;;;0.80;0.80;;;17.80;99.90;;;;;;5091018;28;20200;-66
2022/05/20 02:53:02;;;;;;;0.40;0.40;;;17.80;99.90;;;;;;5093344;28;20216;-66
2022/05/20 02:55:51;;;;;;;0.40;0.40;;;17.80;99.90;;;;;;5091099;28;20242;-66
2022/05/20 03:04:52;;;;;;;4.22;1.70;;;17.90;99.90;;;;;;5074852;28;20185;-66
2022/05/20 03:07:40;;;;;;;0.73;0.73;;;18.00;99.90;;;;;;5074970;28;20202;-66
2022/05/20 03:10:29;;;;;;;0.40;0.40;;;18.10;99.90;;;;;;5075256;28;20181;-66
2022/05/20 03:13:18;;;;;;;0.40;0.40;;;18.10;99.90;;;;;;5075475;28;20205;-66
2022/05/20 03:16:06;;;;;;;0.40;0.40;;;18.10;99.90;;;;;;5075074;28;20201;-66
2022/05/20 03:18:54;;;;;;;0.50;0.50;;;18.10;99.90;;;;;;5075492;28;20186;-70
2022/05/20 03:21:44;;;;;;;0.60;0.60;;;18.10;99.90;;;;;;5075781;28;20225;-66
2022/05/20 03:24:32;;;;;;;0.88;0.88;;;18.10;99.90;;;;;;5075452;28;20205;-66
2022/05/20 03:27:21;;;;;;;1.20;0.95;;;18.10;99.90;;;;;;5075704;28;20182;-66
2022/05/20 03:30:11;;;;;;;0.57;0.57;;;18.00;99.90;;;;;;5077567;28;20201;-66
2022/05/20 03:32:59;;;;;;;1.05;1.02;;;18.00;99.90;;;;;;5079781;28;20247;-66
2022/05/20 03:35:48;;;;;;;0.90;0.90;;;18.10;99.90;;;;;;5080033;28;20186;-67
2022/05/20 03:38:38;;;;;;;1.80;1.70;;;18.10;99.90;;;;;;5079338;28;20201;-66
2022/05/20 03:41:26;;;;;;;1.70;1.58;;;18.00;99.90;;;;;;5079735;28;20221;-66
2022/05/20 03:44:16;;;;;;;2.30;2.08;;;18.00;99.90;;;;;;5079565;28;20252;-67
2022/05/20 03:47:04;;;;;;;0.65;0.65;;;18.00;99.90;;;;;;5114086;28;20188;-66
2022/05/20 03:49:52;;;;;;;2.47;2.28;;;18.00;99.90;;;;;;5118480;28;20200;-68
2022/05/20 03:52:41;;;;;;;0.50;0.50;;;18.00;99.90;;;;;;5117551;28;20231;-66
2022/05/20 03:55:31;;;;;;;0.40;0.40;;;18.00;99.90;;;;;;5077392;28;20202;-66
2022/05/20 03:58:19;;;;;;;2.05;1.92;;;18.00;99.90;;;;;;5112900;28;20209;-66
2022/05/20 04:04:17;;;;;;;0.40;0.40;;;18.10;99.90;;;;;;5117161;28;20216;-66
2022/05/20 04:07:08;;;;;;;1.85;1.65;;;18.10;99.90;;;;;;5116678;28;20234;-67
2022/05/20 04:09:56;;;;;;;3.30;2.55;;;18.00;99.90;;;;;;5116674;28;20652;-66
2022/05/20 04:12:46;;;;;;;1.40;1.30;;;18.00;99.90;;;;;;5109587;28;20232;-66
2022/05/20 04:15:34;;;;;;;0.40;0.40;;;18.00;99.90;;;;;;5110959;28;20227;-66
2022/05/20 04:18:22;;;;;;;1.73;1.63;;;18.00;99.90;;;;;;5108651;28;20204;-66
2022/05/20 04:21:11;;;;;;;0.40;0.40;;;18.10;99.90;;;;;;5109531;28;20246;-66
2022/05/20 04:23:59;;;;;;;0.40;0.40;;;18.10;99.90;;;;;;5112852;28;20200;-67
2022/05/20 04:26:47;;;;;;;0.77;0.77;;;18.10;99.90;;;;;;5114449;28;20245;-66
2022/05/20 04:29:37;;;;;;;1.48;1.17;;;18.20;99.90;;;;;;5113729;28;20219;-67
2022/05/20 04:32:25;;;;;;;0.73;0.73;;;18.20;99.90;;;;;;5116284;28;20246;-66
2022/05/20 04:35:13;;;;;;;0.95;0.68;;;18.30;99.90;;;;;;5113133;28;20196;-67
2022/05/20 04:38:02;;;;;;;0.40;0.40;;;18.40;99.90;;;;;;5114437;28;20204;-66
2022/05/20 04:46:56;;;;;;;1.38;1.27;;;18.40;99.90;;;;;;5114755;28;20200;-66
2022/05/20 04:47:09;;;;;;;0.40;0.40;;;18.50;99.90;;;;;;5116896;28;20222;-66
2022/05/20 04:49:58;;;;;;;1.48;1.48;;;18.60;99.90;;;;;;5117082;28;20196;-66
2022/05/20 04:52:46;;;;;;;0.88;0.88;;;18.60;99.90;;;;;;5116456;28;20223;-67
2022/05/20 04:55:33;;;;;;;0.40;0.40;;;18.70;99.90;;;;;;5118023;28;20204;-67
2022/05/20 04:58:21;;;;;;;3.63;2.17;;;18.70;99.90;;;;;;5097137;28;20204;-67
2022/05/20 05:01:09;;;;;;;1.65;0.70;;;18.90;99.90;;;;;;5097282;28;20192;-67
2022/05/20 05:03:59;;;;;;;0.52;0.52;;;19.00;99.90;;;;;;5096771;28;20191;-66
2022/05/20 05:06:48;;;;;;;2.70;1.05;;;19.00;99.90;;;;;;5097127;28;20198;-66
2022/05/20 05:09:37;;;;;;;1.38;1.35;;;19.00;99.90;;;;;;5096192;28;20456;-66
2022/05/20 05:12:25;;;;;;;0.50;0.50;;;19.00;99.90;;;;;;5095528;28;20220;-66
2022/05/20 05:15:14;;;;;;;1.02;0.90;;;19.00;99.90;;;;;;5096686;28;20216;-66
2022/05/20 05:18:12;;;;;;;0.40;0.40;;;19.10;99.90;;;;;;5095832;28;20196;-66
2022/05/20 05:21:02;;;;;;;1.85;1.75;;;19.10;99.90;;;;;;5096633;28;20215;-66
2022/05/20 05:23:50;;;;;;;0.40;0.40;;;19.10;99.90;;;;;;5095581;28;20201;-66
2022/05/20 05:26:40;;;;;;;1.95;1.25;;;19.30;99.90;;;;;;5094511;28;20231;-66
2022/05/20 05:29:28;;;;;;;1.10;1.10;;;19.20;99.90;;;;;;5096407;28;20211;-66
2022/05/20 05:32:17;;;;;;;0.40;0.40;;;19.20;99.90;;;;;;5095791;28;20231;-66
2022/05/20 05:35:07;;;;;;;3.47;2.20;;;19.20;99.90;;;;;;5095450;28;20225;-66
2022/05/20 05:37:57;;;;;;;2.80;1.63;;;19.30;99.90;;;;;;5096486;28;20250;-67
2022/05/20 05:40:46;;;;;;;2.40;1.98;;;19.40;99.90;;;;;;5093409;28;20200;-67
2022/05/20 05:43:34;;;;;;;0.70;0.70;;;19.50;99.90;;;;;;5093372;28;20227;-67
2022/05/20 05:46:22;;;;;;;0.57;0.57;;;19.70;99.90;;;;;;5095801;28;20189;-67
2022/05/20 05:49:10;;;;;;;0.40;0.40;;;19.80;99.90;;;;;;5096640;28;20197;-67
2022/05/20 05:51:58;;;;;;;0.77;0.77;;;20.00;99.90;;;;;;5091527;28;20224;-66
2022/05/20 05:54:48;;;;;;;0.68;0.50;;;20.00;99.90;;;;;;5095716;28;20243;-67
2022/05/20 05:57:36;;;;;;;1.40;1.40;;;19.90;99.90;;;;;;5096140;28;20242;-67
2022/05/20 06:00:25;;;;;;;0.50;0.50;;;19.80;99.90;;;;;;5094681;28;20205;-67
2022/05/20 06:03:15;;;;;;;0.75;0.75;;;19.80;99.90;;;;;;5094438;28;20204;-66
2022/05/20 06:06:04;;;;;;;0.50;0.50;;;19.80;99.90;;;;;;5094790;28;20229;-66
2022/05/20 06:08:52;;;;;;;1.35;1.25;;;19.80;99.90;;;;;;5095344;28;20201;-67
2022/05/20 06:11:42;;;;;;;5.47;3.92;;;19.80;99.90;;;;;;5094361;28;20249;-67
2022/05/20 06:14:30;;;;;;;0.52;0.52;;;19.60;99.90;;;;;;5095571;28;20220;-66
2022/05/20 06:17:18;;;;;;;2.15;1.95;;;19.50;99.90;;;;;;5092504;28;20208;-66
2022/05/20 06:20:08;;;;;;;3.42;1.65;;;19.40;99.90;;;;;;5096163;28;20187;-67
2022/05/20 06:22:57;;;;;;;4.03;2.33;;;19.50;99.90;;;;;;5096693;28;20285;-66
2022/05/20 06:25:45;;;;;;;2.45;1.88;;;19.50;99.90;;;;;;5095816;28;20185;-66
2022/05/20 06:28:55;;;;;;;0.95;0.52;;;19.40;99.90;;;;;;5095929;28;20224;-66
2022/05/20 06:31:44;;;;;;;0.40;0.40;;;19.30;99.90;;;;;;5092722;28;20217;-67
2022/05/20 06:40:56;;;;;;;0.65;0.65;;;19.90;99.90;;;;;;5076137;28;20201;-68
2022/05/20 06:43:45;;;;;;;0.47;0.47;;;20.30;99.90;;;;;;5074399;28;20205;-67
2022/05/20 06:46:36;;;;;;;1.98;1.70;;;20.20;99.90;;;;;;5074840;28;20198;-66
2022/05/20 06:49:24;;;;;;;0.40;0.40;;;20.30;99.90;;;;;;5073350;28;20197;-67
2022/05/20 06:52:13;;;;;;;3.50;3.03;;;20.30;99.90;;;;;;5072487;28;20275;-67
2022/05/20 06:55:21;;;;;;;3.97;3.03;;;20.50;99.90;;;;;;5075989;28;20217;-67
2022/05/20 06:58:10;;;;;;;6.43;2.72;;;20.40;99.90;;;;;;5110785;28;20226;-67
2022/05/20 07:00:58;;;;;;;1.55;1.40;;;20.00;99.90;;;;;;5115498;28;20226;-67
2022/05/20 07:03:48;;;;;;;0.93;0.93;;;20.00;99.90;;;;;;5112596;28;20196;-67
2022/05/20 07:06:37;;;;;;;2.28;1.35;;;19.90;99.90;;;;;;5100669;28;20243;-67
2022/05/20 07:09:25;;;;;;;1.08;0.60;;;19.90;99.90;;;;;;5093867;28;20207;-67
2022/05/20 07:12:13;;;;;;;1.38;1.33;;;20.10;99.90;;;;;;5094906;28;20242;-67
2022/05/20 07:15:01;;;;;;;1.77;1.67;;;20.20;99.90;;;;;;5094102;28;20217;-67
2022/05/20 07:17:55;;;;;;;0.40;0.40;;;20.30;99.90;;;;;;5093018;28;20208;-67
2022/05/20 07:20:44;;;;;;;2.58;1.38;;;20.40;99.90;;;;;;5093114;28;20224;-67
2022/05/20 07:23:33;;;;;;;0.40;0.40;;;20.50;99.90;;;;;;5094837;28;20266;-67
2022/05/20 07:26:21;;;;;;;2.65;2.42;;;20.50;99.90;;;;;;5093873;28;20193;-67
2022/05/20 07:29:12;;;;;;;1.75;1.65;;;20.50;99.90;;;;;;5095646;28;20200;-67
2022/05/20 07:32:00;;;;;;;2.45;1.60;;;20.40;99.90;;;;;;5094384;28;20227;-68
2022/05/20 07:34:49;;;;;;;2.60;2.40;;;20.30;99.90;;;;;;5095182;28;20217;-67
2022/05/20 07:37:38;;;;;;;1.42;1.20;;;20.30;99.90;;;;;;5089298;28;20197;-67
2022/05/20 07:40:29;;;;;;;2.60;0.88;;;20.30;99.90;;;;;;5084741;28;20209;-67
2022/05/20 07:43:20;;;;;;;0.40;0.40;;;20.20;99.90;;;;;;5085984;28;20253;-67
2022/05/20 07:46:09;;;;;;;0.80;0.80;;;20.30;99.90;;;;;;5084512;28;20204;-67
2022/05/20 07:48:57;;;;;;;0.40;0.40;;;20.30;99.90;;;;;;5087365;28;20256;-67
2022/05/20 07:51:49;;;;;;;0.55;0.55;;;20.40;99.90;;;;;;5091836;28;20221;-67
2022/05/20 07:54:42;;;;;;;0.60;0.55;;;20.50;99.90;;;;;;5086663;28;20270;-67
2022/05/20 07:57:33;;;;;;;1.92;1.83;;;20.50;99.90;;;;;;5092825;28;20284;-67
2022/05/20 08:00:24;;;;;;;1.85;1.75;;;20.60;99.90;;;;;;5093495;28;20243;-67
2022/05/20 08:04:52;;;;;;;1.27;1.17;;;20.60;99.90;;;;;;5092830;28;20231;-67
2022/05/20 08:06:24;;;;;;;0.50;0.50;;;20.50;99.90;;;;;;5094225;28;20205;-67
2022/05/20 08:09:12;;;;;;;1.77;1.65;;;20.60;99.90;;;;;;5096156;28;20177;-67
2022/05/20 08:12:02;;;;;;;1.10;1.10;;;20.60;99.90;;;;;;5092970;28;20255;-68
2022/05/20 08:15:05;;;;;;;0.40;0.40;;;20.60;99.90;;;;;;5095837;28;20243;-68
2022/05/20 08:17:54;;;;;;;1.35;1.25;;;20.70;99.90;;;;;;5098798;28;20194;-68
2022/05/20 08:20:46;;;;;;;1.40;0.65;;;20.70;99.90;;;;;;5095949;28;20260;-68
2022/05/20 08:23:34;;;;;;;0.85;0.68;;;20.80;99.90;;;;;;5097980;28;20203;-68
2022/05/20 08:26:22;;;;;;;0.90;0.90;;;20.90;99.90;;;;;;5096329;28;20223;-68
2022/05/20 08:29:12;;;;;;;0.50;0.50;;;20.80;99.90;;;;;;5094794;28;20205;-68
2022/05/20 08:32:03;;;;;;;0.40;0.40;;;20.80;99.90;;;;;;5096176;28;20243;-68
2022/05/20 08:34:51;;;;;;;1.60;1.48;;;21.00;99.90;;;;;;5097834;28;20213;-68
2022/05/20 08:37:40;;;;;;;0.40;0.40;;;21.30;99.90;;;;;;5096242;28;20208;-68
2022/05/20 08:40:43;;;;;;;3.45;3.17;;;21.40;99.90;;;;;;5112315;28;20374;-68
2022/05/20 08:43:33;;;;;;;0.50;0.50;;;21.50;99.90;;;;;;5118436;28;20317;-66
2022/05/20 08:46:24;;;;;;;0.43;0.43;;;21.40;99.90;;;;;;5118958;28;20200;-66
2022/05/20 08:49:15;;;;;;;0.73;0.60;;;21.40;99.90;;;;;;5115988;28;20200;-66
2022/05/20 08:52:04;;;;;;;0.77;0.77;;;21.50;99.90;;;;;;5115280;28;20208;-66
2022/05/20 08:54:52;;;;;;;0.50;0.50;;;21.60;99.90;;;;;;5114021;28;20230;-67
2022/05/20 08:58:00;;;;;;;1.58;1.48;;;21.70;99.90;;;;;;5077229;28;20185;-67
2022/05/20 09:00:48;;;;;;;1.30;1.13;;;21.60;99.90;;;;;;5076714;28;20202;-67
2022/05/20 09:03:38;;;;;;;0.70;0.70;;;21.40;99.90;;;;;;5076162;28;20216;-66
2022/05/20 09:06:27;;;;;;;0.85;0.85;;;21.40;99.90;;;;;;5077784;28;20197;-66
2022/05/20 09:09:16;;;;;;;0.60;0.60;;;21.40;99.90;;;;;;5077974;28;20210;-67
2022/05/20 09:12:05;;;;;;;1.25;1.15;;;21.30;99.90;;;;;;5076236;28;20243;-66
2022/05/20 09:18:13;;;;;;;0.70;0.70;;;21.40;99.90;;;;;;5078102;28;20197;-67
2022/05/20 09:21:04;;;;;;;0.43;0.43;;;21.50;99.90;;;;;;5078418;28;20227;-67
2022/05/20 09:23:55;;;;;;;1.63;1.38;;;21.50;99.90;;;;;;5077041;28;20227;-68
2022/05/20 09:26:48;;;;;;;1.25;1.15;;;21.50;99.90;;;;;;5075378;28;20185;-67
2022/05/20 09:29:54;;;;;;;0.40;0.40;;;21.50;99.90;;;;;;5076395;28;20225;-67
2022/05/20 09:32:45;;;;;;;0.40;0.40;;;21.60;99.90;;;;;;5088952;28;20225;-67
2022/05/20 09:35:35;;;;;;;0.73;0.73;;;21.70;99.90;;;;;;5096710;28;20217;-67
2022/05/20 09:38:35;;;;;;;2.20;0.82;;;21.80;99.90;;;;;;5096000;28;20223;-67
2022/05/20 09:41:23;;;;;;;1.95;1.85;;;22.00;99.90;;;;;;5095685;28;20212;-67
2022/05/20 09:44:12;;;;;;;13.13;0.80;;;22.10;99.90;;;;;;5098337;28;20212;-71
2022/05/20 09:47:05;;;;;;;3.95;1.65;;;22.10;99.90;;;;;;5098146;28;20205;-68
2022/05/20 09:49:57;;;;;;;0.40;0.40;;;22.10;99.90;;;;;;5094472;28;20204;-69
2022/05/20 09:52:53;;;;;;;0.60;0.60;;;22.00;99.90;;;;;;5092714;28;20717;-68
2022/05/20 09:55:44;;;;;;;0.50;0.50;;;22.00;99.90;;;;;;5092730;28;20200;-68
2022/05/20 09:58:36;;;;;;;0.40;0.40;;;22.10;99.90;;;;;;5096011;28;20300;-68
2022/05/20 10:01:25;;;;;;;0.57;0.57;;;22.10;99.90;;;;;;5095013;28;20235;-67
2022/05/20 10:04:21;;;;;;;0.40;0.40;;;22.20;99.90;;;;;;5097600;28;20184;-68
2022/05/20 10:07:13;;;;;;;0.60;0.60;;;22.20;99.90;;;;;;5095851;28;20197;-67
2022/05/20 10:10:08;;;;;;;0.40;0.40;;;22.40;99.90;;;;;;5097384;28;20197;-67
2022/05/20 10:13:00;;;;;;;0.70;0.70;;;22.30;99.90;;;;;;5095583;28;20208;-67
2022/05/20 10:15:52;;;;;;;0.77;0.77;;;22.30;99.90;;;;;;5095973;28;20215;-67
2022/05/20 10:18:48;;;;;;;1.50;1.25;;;22.40;99.90;;;;;;5096844;28;20181;-67
2022/05/20 10:21:50;;;;;;;0.50;0.50;;;22.40;99.90;;;;;;5096009;28;20227;-67
2022/05/20 10:24:50;;;;;;;1.20;1.10;;;22.50;99.90;;;;;;5095537;28;20196;-67
2022/05/20 10:27:45;;;;;;;0.73;0.73;;;22.40;99.90;;;;;;5096442;28;20207;-67
2022/05/20 10:33:44;;;;;;;0.50;0.50;;;22.60;99.90;;;;;;5095298;28;20235;-67
2022/05/20 10:36:41;;;;;;;3.10;0.85;;;22.70;99.90;;;;;;5102192;23;20503;-72
2022/05/20 10:39:47;;;;;;;1.55;1.45;;;22.80;99.90;;;;;;5071868;28;20208;-71
2022/05/20 10:42:58;;;;;;;1.25;1.15;;;22.80;99.90;;;;;;5070288;28;20207;-71
2022/05/20 10:49:15;;;;;;;1.25;1.25;;;22.90;99.90;;;;;;5071844;28;20702;-71
2022/05/20 10:52:09;;;;;;;0.50;0.50;;;22.90;99.90;;;;;;5070930;28;20204;-71
2022/05/20 10:55:09;;;;;;;1.15;1.05;;;22.90;99.90;;;;;;5070083;28;20646;-69
2022/05/20 10:58:24;;;;;;;1.30;0.60;;;23.00;99.90;;;;;;5087304;28;20698;-70
2022/05/20 11:01:19;;;;;;;0.40;0.40;;;23.20;99.90;;;;;;5091220;28;20344;-71
2022/05/20 11:04:42;;;;;;;0.75;0.75;;;22.50;98.60;;;;;;5091585;28;20283;-70
2022/05/20 11:07:57;;;;;;;0.80;0.80;;;23.30;99.10;;;;;;5090601;28;20675;-72
2022/05/20 11:11:09;;;;;;;0.70;0.70;;;23.30;97.70;;;;;;5091715;28;20207;-70
2022/05/20 11:14:11;;;;;;;0.70;0.70;;;23.30;97.00;;;;;;5090372;28;20711;-70
2022/05/20 11:17:27;;;;;;;0.40;0.40;;;23.30;97.80;;;;;;5090080;28;20230;-70
2022/05/20 11:20:25;;;;;;;0.57;0.55;;;23.40;98.30;;;;;;5058077;28;20200;-72
2022/05/20 11:23:26;;;;;;;0.65;0.65;;;23.50;95.50;;;;;;5062105;28;20201;-71
2022/05/20 11:26:45;;;;;;;0.60;0.60;;;23.50;94.80;;;;;;5050247;28;20616;-70
2022/05/20 11:30:02;;;;;;;0.40;0.40;;;23.60;92.80;;;;;;5051479;28;20620;-71
2022/05/20 11:33:16;;;;;;;0.40;0.40;;;23.70;94.20;;;;;;5049700;28;20255;-69
2022/05/20 11:36:18;;;;;;;0.50;0.50;;;23.80;94.40;;;;;;5050959;28;20229;-70
2022/05/20 11:39:30;;;;;;;0.50;0.50;;;23.80;93.50;;;;;;5050375;28;20209;-69
2022/05/20 11:42:31;;;;;;;0.75;0.75;;;23.90;93.60;;;;;;5049910;28;20205;-69
2022/05/20 11:45:31;;;;;;;0.70;0.63;;;24.00;93.80;;;;;;5050324;28;20232;-70
2022/05/20 11:48:33;;;;;;;0.50;0.50;;;24.00;92.10;;;;;;5062026;28;20203;-70
2022/05/20 11:51:53;;;;;;;0.45;0.45;;;24.00;93.10;;;;;;5072410;28;20582;-69
2022/05/20 11:54:49;;;;;;;0.50;0.40;;;24.10;94.30;;;;;;5075455;28;20670;-69
2022/05/20 11:57:44;;;;;;;0.50;0.50;;;24.10;94.70;;;;;;5088744;28;20222;-68
2022/05/20 12:00:38;;;;;;;0.70;0.70;;;24.30;94.40;;;;;;5096904;28;20196;-69
2022/05/20 12:04:06;;;;;;;0.40;0.40;;;24.30;94.00;;;;;;5094370;28;20199;-70
2022/05/20 12:06:43;;;;;;;0.40;0.40;;;24.40;93.40;;;;;;5095414;28;20208;-70
2022/05/20 12:09:37;;;;;;;0.80;0.80;;;24.50;93.70;;;;;;5095552;28;20749;-68
2022/05/20 12:12:28;;;;;;;0.40;0.40;;;24.70;93.60;;;;;;5094388;28;20336;-69
2022/05/20 12:15:40;;;;;;;0.40;0.40;;;24.80;92.90;;;;;;5095449;28;20203;-68
2022/05/20 12:24:51;;;;;;;0.40;0.40;;;25.00;92.40;;;;;;5086395;28;20681;-68
2022/05/20 12:27:41;;;;;;;0.50;0.50;;;25.20;92.10;;;;;;5074767;28;20216;-70
2022/05/20 12:30:39;;;;;;;0.45;0.45;;;25.50;92.10;;;;;;5064556;28;20556;-68
2022/05/20 12:33:48;;;;;;;0.50;0.50;;;25.80;91.90;;;;;;5067466;28;20589;-68
2022/05/20 12:36:39;;;;;;;0.60;0.60;;;26.00;90.20;;;;;;5079760;28;20224;-70
2022/05/20 12:39:51;;;;;;;2.45;2.35;;;26.50;89.30;;;;;;5094082;28;20779;-70
2022/05/20 12:42:46;;;;;;;0.50;0.50;;;27.70;88.70;;;;;;5092798;28;20324;-67
2022/05/20 12:45:41;;;;;;;0.40;0.40;;;29.10;83.80;;;;;;5092303;28;20230;-67
2022/05/20 12:48:31;;;;;;;0.65;0.50;;;30.00;80.50;;;;;;5089501;28;20193;-67
2022/05/20 12:51:19;;;;;;;0.65;0.65;;;30.90;77.20;;;;;;5073683;28;20218;-67
2022/05/20 12:54:17;;;;;;;0.80;0.80;;;32.00;74.00;;;;;;5073228;28;20219;-67
2022/05/20 12:57:08;;;;;;;0.50;0.50;;;32.50;69.70;;;;;;5073279;28;20236;-68
2022/05/20 13:00:00;;;;;;;1.65;0.73;;;32.60;66.90;;;;;;5073813;28;20212;-68
2022/05/20 13:02:55;;;;;;;0.40;0.40;;;32.60;65.00;;;;;;5072939;28;20207;-67
2022/05/20 13:05:49;;;;;;;0.40;0.40;;;32.80;65.40;;;;;;5073824;28;20366;-68
2022/05/20 13:08:47;;;;;;;0.43;0.43;;;33.10;63.00;;;;;;5073195;28;20197;-67
2022/05/20 13:11:43;;;;;;;0.40;0.40;;;34.00;60.90;;;;;;5072747;28;20200;-67
2022/05/20 13:14:34;;;;;;;0.60;0.60;;;34.00;58.40;;;;;;5072293;28;20197;-67
2022/05/20 13:17:23;;;;;;;0.40;0.40;;;33.30;57.80;;;;;;5073166;28;20224;-68
2022/05/20 13:20:12;;;;;;;0.40;0.40;;;33.00;59.10;;;;;;5073260;28;20211;-68
2022/05/20 13:23:02;;;;;;;0.40;0.40;;;32.80;59.00;;;;;;5072060;28;20204;-68
2022/05/20 13:25:51;;;;;;;0.60;0.60;;;32.20;59.50;;;;;;5083647;28;20227;-69
2022/05/20 13:28:40;;;;;;;0.40;0.40;;;32.00;59.40;;;;;;5067891;28;20193;-68
2022/05/20 13:31:29;;;;;;;0.40;0.40;;;31.90;60.10;;;;;;5062001;28;20660;-68
2022/05/20 13:34:17;;;;;;;0.40;0.40;;;31.90;59.30;;;;;;5064503;28;20208;-68
2022/05/20 13:37:09;;;;;;;0.40;0.40;;;31.80;60.40;;;;;;5051689;28;20697;-68
2022/05/20 13:40:02;;;;;;;0.40;0.40;;;32.40;59.60;;;;;;5052007;28;20205;-68
2022/05/20 13:42:53;;;;;;;0.40;0.40;;;32.80;58.90;;;;;;5053006;28;20209;-68
2022/05/20 13:49:16;;;;;;;0.60;0.60;;;33.30;57.70;;;;;;5051437;28;20194;-68
2022/05/20 13:52:08;;;;;;;0.50;0.50;;;33.30;57.90;;;;;;5050842;28;20209;-68
2022/05/20 13:55:01;;;;;;;0.40;0.40;;;33.80;57.50;;;;;;5051490;28;20201;-68
2022/05/20 13:57:51;;;;;;;0.40;0.40;;;34.20;56.50;;;;;;5051775;28;20221;-68
2022/05/20 14:00:46;;;;;;;0.40;0.40;;;34.30;57.10;;;;;;5050450;28;20208;-69
2022/05/20 14:03:41;;;;;;;0.50;0.50;;;34.80;56.40;;;;;;5025796;28;20201;-69
2022/05/20 14:06:30;;;;;;;0.40;0.40;;;34.90;55.30;;;;;;5068496;28;20221;-68
2022/05/20 14:09:18;;;;;;;0.45;0.45;;;34.20;56.00;;;;;;5073268;28;20206;-68
2022/05/20 14:12:14;;;;;;;0.40;0.40;;;33.70;56.50;;;;;;5091197;28;20257;-68
2022/05/20 14:15:10;;;;;;;0.40;0.40;;;33.00;57.10;;;;;;5090911;28;20520;-68
2022/05/20 14:18:10;;;;;;;0.40;0.40;;;32.50;56.90;;;;;;5090849;28;20222;-68
2022/05/20 14:21:02;;;;;;;0.40;0.40;;;33.00;57.20;;;;;;5091042;28;20282;-68
2022/05/20 14:23:55;;;;;;;0.43;0.43;;;33.80;56.90;;;;;;5092120;28;20204;-69
2022/05/20 14:26:52;;;;;;;0.40;0.40;;;35.10;55.10;;;;;;5072914;28;20596;-68
2022/05/20 14:29:44;;;;;;;0.40;0.40;;;35.40;53.80;;;;;;5080263;28;20200;-69
2022/05/20 14:32:32;;;;;;;0.40;0.40;;;34.90;53.80;;;;;;5091313;28;20230;-68
2022/05/20 14:35:27;;;;;;;0.40;0.40;;;34.70;54.70;;;;;;5096343;28;20204;-69
2022/05/20 14:38:22;;;;;;;0.40;0.40;;;36.90;53.40;;;;;;5097589;28;20255;-68
2022/05/20 14:41:17;;;;;;;0.40;0.40;;;38.90;50.20;;;;;;5095811;28;20196;-69
2022/05/20 14:44:07;;;;;;;0.40;0.40;;;41.30;48.10;;;;;;5095308;28;20207;-70
2022/05/20 14:47:15;;;;;;;0.40;0.40;;;42.80;45.00;;;;;;5091544;28;20216;-69
2022/05/20 14:50:13;;;;;;;0.50;0.50;;;43.30;43.60;;;;;;5091739;28;20192;-69
2022/05/20 14:53:07;;;;;;;0.50;0.50;;;43.20;41.80;;;;;;5091821;28;20668;-69
2022/05/20 14:55:57;;;;;;;1.10;1.02;;;42.00;42.30;;;;;;5091342;28;20223;-69
2022/05/20 14:58:58;;;;;;;0.50;0.50;;;42.30;42.00;;;;;;5090103;28;20700;-69
2022/05/20 15:01:46;;;;;;;0.50;0.50;;;42.50;41.80;;;;;;5091054;28;20199;-69
2022/05/20 15:04:35;;;;;;;0.40;0.40;;;43.00;41.80;;;;;;5091510;28;20288;-69
2022/05/20 15:07:23;;;;;;;0.50;0.50;;;42.10;41.10;;;;;;5091701;28;20636;-69
2022/05/20 15:10:17;;;;;;;0.50;0.50;;;41.50;42.20;;;;;;5091330;28;20556;-69
2022/05/20 15:13:06;;;;;;;0.40;0.40;;;40.40;42.10;;;;;;5090463;28;20202;-69
2022/05/20 15:15:55;;;;;;;0.50;0.50;;;38.30;44.20;;;;;;5105822;22;20235;-68
2022/05/20 15:18:43;;;;;;;0.40;0.40;;;36.60;45.50;;;;;;5071467;28;20229;-67
2022/05/20 15:21:34;;;;;;;0.40;0.40;;;34.90;47.80;;;;;;5075088;28;20200;-67
2022/05/20 15:24:25;;;;;;;0.50;0.50;;;34.50;49.00;;;;;;5074919;28;20583;-68
2022/05/20 15:27:23;;;;;;;0.40;0.40;;;35.80;48.90;;;;;;5055604;28;20254;-67
2022/05/20 15:30:11;;;;;;;0.40;0.40;;;38.20;47.00;;;;;;5056078;28;20580;-66
2022/05/20 15:36:05;;;;;;;0.40;0.40;;;39.20;44.40;;;;;;5054382;28;20598;-68
2022/05/20 15:38:54;;;;;;;0.40;0.40;;;37.90;45.30;;;;;;5055090;28;20731;-67
2022/05/20 15:41:42;;;;;;;0.40;0.40;;;36.90;46.30;;;;;;5057700;28;20201;-67